Time;durP1;ratioP1;P1;durP2;ratioP2;P2;SDS_P1;SDS_P2;PMS_P1;PMS_P2;Temp;Humidity;BMP_temperature;BMP_pressure;BME280_temperature;BME280_humidity;BME280_pressure;Samples;Min_cycle;Max_cycle;Signal;HPM_P1;HPM_P2
2024/02/12 00:00:11;;;;;;;3.60;2.20;;;6.30;99.90;;;;;;5037962;28;20704;-59
2024/02/12 00:02:39;;;;;;;5.97;2.60;;;6.20;99.90;;;;;;5037019;28;20208;-57
2024/02/12 00:05:07;;;;;;;3.63;2.40;;;6.10;99.90;;;;;;5016839;28;20703;-58
2024/02/12 00:07:33;;;;;;;4.50;2.20;;;6.20;99.90;;;;;;5017093;28;20188;-56
2024/02/12 00:10:05;;;;;;;3.97;2.10;;;6.10;99.90;;;;;;5029597;28;20491;-56
2024/02/12 00:12:32;;;;;;;7.67;2.37;;;6.10;99.90;;;;;;5026675;28;20561;-56
2024/02/12 00:14:59;;;;;;;4.67;2.37;;;6.10;99.90;;;;;;5019846;28;20561;-57
2024/02/12 00:17:25;;;;;;;3.93;2.00;;;6.10;99.90;;;;;;5023819;28;20180;-56
2024/02/12 00:19:51;;;;;;;4.97;2.00;;;6.00;99.90;;;;;;5013185;28;20212;-59
2024/02/12 00:22:16;;;;;;;8.03;2.20;;;6.10;99.90;;;;;;5022603;28;20704;-58
2024/02/12 00:24:42;;;;;;;6.40;3.03;;;6.00;99.90;;;;;;5028303;28;20558;-58
2024/02/12 00:27:07;;;;;;;8.80;3.33;;;6.00;99.90;;;;;;5019881;28;20646;-59
2024/02/12 00:29:33;;;;;;;9.90;2.80;;;6.10;99.90;;;;;;5044920;28;20570;-57
2024/02/12 00:32:00;;;;;;;6.63;3.63;;;6.10;99.90;;;;;;5024864;28;20191;-58
2024/02/12 00:34:28;;;;;;;4.27;2.63;;;6.20;99.90;;;;;;5047111;28;20194;-58
2024/02/12 00:36:54;;;;;;;8.20;3.60;;;6.20;99.90;;;;;;5042419;28;20596;-58
2024/02/12 00:39:20;;;;;;;9.90;3.20;;;6.20;99.90;;;;;;5024415;28;20184;-57
2024/02/12 00:41:50;;;;;;;10.43;3.70;;;6.20;99.90;;;;;;5048656;28;20210;-58
2024/02/12 00:44:16;;;;;;;6.63;3.50;;;6.30;99.90;;;;;;5021140;28;20192;-57
2024/02/12 00:46:47;;;;;;;4.43;2.87;;;6.30;99.90;;;;;;5029318;28;20179;-58
2024/02/12 00:49:16;;;;;;;5.20;3.07;;;6.30;99.90;;;;;;5044894;28;20183;-57
2024/02/12 00:51:42;;;;;;;5.43;3.17;;;6.30;99.90;;;;;;5044541;28;20678;-57
2024/02/12 00:54:10;;;;;;;6.60;3.13;;;6.30;99.90;;;;;;5033180;28;20683;-57
2024/02/12 00:56:37;;;;;;;8.30;3.20;;;6.30;99.90;;;;;;5031904;28;20183;-57
2024/02/12 00:59:03;;;;;;;9.80;3.50;;;6.30;99.90;;;;;;5016289;28;20286;-59
2024/02/12 01:01:28;;;;;;;13.77;5.03;;;6.40;99.90;;;;;;5040624;28;20294;-60
2024/02/12 01:03:54;;;;;;;10.60;4.93;;;6.30;99.90;;;;;;5024320;28;20209;-59
2024/02/12 01:06:20;;;;;;;9.53;4.37;;;6.30;99.90;;;;;;5037342;28;20175;-59
2024/02/12 01:08:45;;;;;;;11.67;4.23;;;6.30;99.90;;;;;;5027699;28;20180;-56
2024/02/12 01:11:11;;;;;;;9.23;3.50;;;6.30;99.90;;;;;;5033579;28;20227;-58
2024/02/12 01:13:36;;;;;;;6.93;3.20;;;6.20;99.90;;;;;;5041526;28;20196;-57
2024/02/12 01:16:02;;;;;;;8.17;3.10;;;6.20;99.90;;;;;;5037490;28;20246;-57
2024/02/12 01:18:28;;;;;;;6.43;2.73;;;6.10;99.90;;;;;;5045480;28;20206;-56
2024/02/12 01:20:53;;;;;;;7.20;3.20;;;6.00;99.90;;;;;;5034281;28;20218;-57
2024/02/12 01:23:19;;;;;;;16.57;4.50;;;5.90;99.90;;;;;;5032324;28;20184;-59
2024/02/12 01:25:49;;;;;;;21.30;6.17;;;5.90;99.90;;;;;;5023274;28;20268;-58
2024/02/12 01:28:15;;;;;;;9.83;3.13;;;6.00;99.90;;;;;;5039783;28;20179;-59
2024/02/12 01:30:42;;;;;;;9.90;3.87;;;6.00;99.90;;;;;;5047918;28;20281;-57
2024/02/12 01:33:08;;;;;;;7.10;3.57;;;6.00;99.90;;;;;;5020202;28;20188;-58
2024/02/12 01:35:33;;;;;;;7.47;3.27;;;6.10;99.90;;;;;;5035541;28;20666;-58
2024/02/12 01:37:59;;;;;;;6.60;2.90;;;6.00;99.90;;;;;;5025030;28;20685;-57
2024/02/12 01:40:24;;;;;;;9.63;2.63;;;5.90;99.90;;;;;;5043476;28;20226;-56
2024/02/12 01:42:50;;;;;;;4.00;2.30;;;5.90;99.90;;;;;;5032975;28;20794;-54
2024/02/12 01:45:23;;;;;;;5.47;2.60;;;5.90;99.90;;;;;;5029363;28;20191;-55
2024/02/12 01:47:57;;;;;;;8.10;2.50;;;5.90;99.90;;;;;;5028067;28;20194;-58
2024/02/12 01:50:24;;;;;;;6.13;2.50;;;5.90;99.90;;;;;;5017693;28;20636;-59
2024/02/12 01:52:52;;;;;;;5.50;2.40;;;5.90;99.90;;;;;;5031972;28;20293;-58
2024/02/12 01:55:21;;;;;;;5.00;2.00;;;5.90;99.90;;;;;;5028268;28;20187;-57
2024/02/12 01:57:50;;;;;;;5.87;2.40;;;5.90;99.90;;;;;;5050444;28;20179;-59
2024/02/12 02:00:17;;;;;;;4.90;2.10;;;5.90;99.90;;;;;;5044106;28;20295;-57
2024/02/12 02:02:44;;;;;;;5.50;2.00;;;5.90;99.90;;;;;;5018711;28;20243;-58
2024/02/12 02:05:12;;;;;;;4.70;1.90;;;5.80;99.90;;;;;;5026746;28;20552;-58
2024/02/12 02:07:38;;;;;;;7.83;2.20;;;5.90;99.90;;;;;;5041999;28;20294;-58
2024/02/12 02:10:08;;;;;;;3.87;1.90;;;5.90;99.90;;;;;;5028590;28;20210;-60
2024/02/12 02:12:35;;;;;;;9.17;2.50;;;6.00;99.90;;;;;;5043395;28;20560;-59
2024/02/12 02:15:01;;;;;;;6.77;2.70;;;6.00;99.90;;;;;;5033975;28;20275;-60
2024/02/12 02:17:28;;;;;;;4.33;2.33;;;6.00;99.90;;;;;;5038191;28;20191;-59
2024/02/12 02:19:54;;;;;;;6.50;2.80;;;6.00;99.90;;;;;;5049678;28;20270;-59
2024/02/12 02:22:20;;;;;;;4.60;2.40;;;6.00;99.90;;;;;;5012783;28;20239;-60
2024/02/12 02:24:46;;;;;;;7.10;2.60;;;6.00;99.90;;;;;;5029384;28;20224;-61
2024/02/12 02:27:11;;;;;;;4.33;2.27;;;6.00;99.90;;;;;;5019728;28;20270;-60
2024/02/12 02:29:37;;;;;;;4.87;2.20;;;6.00;99.90;;;;;;5021417;28;20648;-60
2024/02/12 02:32:04;;;;;;;3.57;1.57;;;5.90;99.90;;;;;;5034244;28;20297;-59
2024/02/12 02:34:29;;;;;;;5.80;2.30;;;5.90;99.90;;;;;;5052131;28;20183;-60
2024/02/12 02:36:56;;;;;;;3.97;2.17;;;5.80;99.90;;;;;;5048447;28;20186;-59
2024/02/12 02:39:22;;;;;;;10.83;2.60;;;5.80;99.90;;;;;;5023277;28;20196;-60
2024/02/12 02:41:48;;;;;;;5.70;2.47;;;5.80;99.90;;;;;;5035102;28;20675;-59
2024/02/12 02:44:14;;;;;;;4.60;2.20;;;5.80;99.90;;;;;;5028438;28;20409;-59
2024/02/12 02:46:40;;;;;;;4.03;2.27;;;5.90;99.90;;;;;;5019994;28;20195;-58
2024/02/12 02:49:08;;;;;;;6.07;2.40;;;5.90;99.90;;;;;;5018096;28;20176;-59
2024/02/12 02:51:35;;;;;;;5.57;1.93;;;5.90;99.90;;;;;;5028640;28;20630;-58
2024/02/12 02:54:01;;;;;;;4.20;2.57;;;6.00;99.90;;;;;;5034286;28;20206;-60
2024/02/12 02:56:26;;;;;;;6.27;2.37;;;6.00;99.90;;;;;;5017210;28;20233;-60
2024/02/12 02:58:52;;;;;;;7.30;3.13;;;6.00;99.90;;;;;;5041515;28;20227;-58
2024/02/12 03:01:20;;;;;;;5.57;2.17;;;5.90;99.90;;;;;;5021018;28;20219;-60
2024/02/12 03:03:51;;;;;;;6.13;2.00;;;5.80;99.90;;;;;;5018165;28;20238;-59
2024/02/12 03:06:20;;;;;;;4.13;1.63;;;5.80;99.90;;;;;;5035585;28;20178;-58
2024/02/12 03:08:49;;;;;;;4.47;1.70;;;5.70;99.90;;;;;;5034765;28;20220;-58
2024/02/12 03:11:19;;;;;;;5.20;1.50;;;5.70;99.90;;;;;;5018317;28;20224;-60
2024/02/12 03:13:45;;;;;;;5.60;2.20;;;5.70;99.90;;;;;;5019965;28;20216;-59
2024/02/12 03:16:14;;;;;;;7.03;1.73;;;5.60;99.90;;;;;;5027336;28;20197;-61
2024/02/12 03:18:41;;;;;;;4.63;1.93;;;5.50;99.90;;;;;;5027017;28;20198;-60
2024/02/12 03:21:09;;;;;;;5.40;1.90;;;5.50;99.90;;;;;;5019815;28;20216;-59
2024/02/12 03:23:35;;;;;;;3.43;1.90;;;5.50;99.90;;;;;;5034935;28;20192;-59
2024/02/12 03:26:02;;;;;;;5.63;1.97;;;5.60;99.90;;;;;;5033803;28;20333;-60
2024/02/12 03:28:28;;;;;;;4.50;1.97;;;5.70;99.90;;;;;;5044907;28;20283;-59
2024/02/12 03:30:53;;;;;;;6.73;1.90;;;5.70;99.90;;;;;;5022731;28;20684;-58
2024/02/12 03:33:19;;;;;;;4.93;2.10;;;5.80;99.90;;;;;;5044079;28;20702;-60
2024/02/12 03:35:44;;;;;;;8.27;2.20;;;5.80;99.90;;;;;;5026398;28;20655;-60
2024/02/12 03:38:10;;;;;;;4.50;2.20;;;5.80;99.90;;;;;;5027401;28;20188;-60
2024/02/12 03:40:36;;;;;;;8.03;2.00;;;5.90;99.90;;;;;;5011229;28;20212;-59
2024/02/12 03:43:02;;;;;;;10.73;2.57;;;5.90;99.90;;;;;;5027370;28;20215;-60
2024/02/12 03:45:29;;;;;;;4.63;2.30;;;5.90;99.90;;;;;;5027426;28;20192;-60
2024/02/12 03:47:59;;;;;;;5.33;2.67;;;6.00;99.90;;;;;;5027060;28;20187;-59
2024/02/12 04:01:26;;;;;;;3.23;1.80;;;6.10;99.90;;;;;;5032776;28;20265;-60
2024/02/12 04:03:52;;;;;;;5.07;2.00;;;6.10;99.90;;;;;;5014961;28;20216;-61
2024/02/12 04:06:19;;;;;;;7.83;2.40;;;6.10;99.90;;;;;;5045587;28;20198;-60
2024/02/12 04:08:46;;;;;;;5.67;2.10;;;6.10;99.90;;;;;;5047072;28;20221;-60
2024/02/12 04:11:12;;;;;;;9.10;2.77;;;6.10;99.90;;;;;;5030379;28;20290;-60
2024/02/12 04:13:38;;;;;;;4.40;2.83;;;6.10;99.90;;;;;;5030603;28;20199;-60
2024/02/12 04:16:12;;;;;;;7.47;3.13;;;6.10;99.90;;;;;;5027277;28;20201;-58
2024/02/12 04:18:41;;;;;;;5.57;2.80;;;6.20;99.90;;;;;;5034117;28;20223;-59
2024/02/12 04:21:09;;;;;;;7.00;2.50;;;6.20;99.90;;;;;;5033200;28;20214;-60
2024/02/12 04:23:38;;;;;;;10.00;2.53;;;6.20;99.90;;;;;;5050147;28;20681;-60
2024/02/12 04:26:06;;;;;;;8.90;3.20;;;6.20;99.90;;;;;;5024784;28;20590;-60
2024/02/12 04:28:32;;;;;;;7.30;3.90;;;6.20;99.90;;;;;;5033742;28;20187;-59
2024/02/12 04:30:58;;;;;;;10.60;4.80;;;6.30;99.90;;;;;;5038190;28;20208;-59
2024/02/12 04:33:23;;;;;;;7.53;4.53;;;6.30;99.90;;;;;;5031677;28;20192;-60
2024/02/12 04:35:49;;;;;;;7.07;4.10;;;6.30;99.90;;;;;;5022112;28;20188;-60
2024/02/12 04:38:15;;;;;;;8.70;5.37;;;6.40;99.90;;;;;;5037426;28;20202;-60
2024/02/12 04:40:40;;;;;;;9.20;5.30;;;6.40;99.90;;;;;;5029244;28;20287;-60
2024/02/12 04:43:08;;;;;;;8.47;4.90;;;6.40;99.90;;;;;;5033071;28;20226;-60
2024/02/12 04:45:33;;;;;;;9.17;4.90;;;6.50;99.90;;;;;;5026872;28;20183;-60
2024/02/12 04:47:59;;;;;;;10.53;5.27;;;6.50;99.90;;;;;;5019182;28;20536;-60
2024/02/12 04:50:25;;;;;;;11.40;5.23;;;6.50;99.90;;;;;;5009895;28;20204;-60
2024/02/12 04:52:51;;;;;;;11.60;5.00;;;6.60;99.90;;;;;;5010131;28;20188;-61
2024/02/12 04:55:17;;;;;;;8.77;5.30;;;6.60;99.90;;;;;;5034848;28;20225;-60
2024/02/12 04:57:42;;;;;;;11.67;5.30;;;6.60;99.90;;;;;;5049114;28;20229;-60
2024/02/12 05:00:13;;;;;;;10.43;4.10;;;6.60;99.90;;;;;;5046400;28;20218;-59
2024/02/12 05:02:40;;;;;;;7.70;3.80;;;6.70;99.90;;;;;;5037102;28;20215;-60
2024/02/12 05:05:06;;;;;;;6.30;3.60;;;6.60;99.90;;;;;;5036116;28;21867;-61
2024/02/12 05:07:32;;;;;;;5.83;3.57;;;6.60;99.90;;;;;;5030461;28;20519;-59
2024/02/12 05:09:58;;;;;;;7.43;3.37;;;6.60;99.90;;;;;;5029372;28;20201;-59
2024/02/12 05:12:24;;;;;;;6.67;3.70;;;6.60;99.90;;;;;;5028546;28;20557;-60
2024/02/12 05:14:50;;;;;;;5.83;3.23;;;6.70;99.90;;;;;;5032281;28;20194;-59
2024/02/12 05:17:23;;;;;;;6.73;3.30;;;6.70;99.90;;;;;;5024691;28;20205;-56
2024/02/12 05:22:33;;;;;;;13.30;3.47;;;6.90;99.90;;;;;;5038969;28;20221;-56
2024/02/12 05:24:58;;;;;;;6.40;3.87;;;6.90;99.90;;;;;;5024451;28;20180;-56
2024/02/12 05:27:24;;;;;;;11.17;4.17;;;6.80;99.90;;;;;;5048818;28;20195;-55
2024/02/12 05:29:51;;;;;;;7.97;4.40;;;6.90;99.90;;;;;;5039659;28;20257;-58
2024/02/12 05:32:19;;;;;;;5.73;3.17;;;6.80;99.90;;;;;;5025936;28;20199;-58
2024/02/12 05:34:47;;;;;;;7.17;3.30;;;6.90;99.90;;;;;;5034029;28;20551;-55
2024/02/12 05:37:12;;;;;;;6.10;3.20;;;6.80;99.90;;;;;;5040612;28;20218;-57
2024/02/12 05:39:38;;;;;;;5.13;3.50;;;6.90;99.90;;;;;;5018515;28;20230;-57
2024/02/12 05:42:04;;;;;;;6.17;3.03;;;6.90;99.90;;;;;;5030413;28;20303;-55
2024/02/12 05:44:33;;;;;;;6.27;3.17;;;6.80;99.90;;;;;;5022184;28;20271;-55
2024/02/12 05:46:59;;;;;;;8.17;4.00;;;6.90;99.90;;;;;;5029003;28;20252;-55
2024/02/12 05:49:26;;;;;;;6.57;3.80;;;6.90;99.90;;;;;;5013323;28;20267;-54
2024/02/12 05:51:53;;;;;;;7.30;4.67;;;6.80;99.90;;;;;;5047231;28;20189;-58
2024/02/12 05:54:19;;;;;;;8.30;4.60;;;6.80;99.90;;;;;;5036593;28;20213;-57
2024/02/12 05:56:45;;;;;;;8.53;4.70;;;6.80;99.90;;;;;;5036305;28;20212;-55
2024/02/12 05:59:11;;;;;;;12.17;5.00;;;6.90;99.90;;;;;;5049225;28;20188;-56
2024/02/12 06:01:37;;;;;;;9.13;4.63;;;6.90;99.90;;;;;;5016644;28;20213;-56
2024/02/12 06:04:03;;;;;;;12.50;4.57;;;6.90;99.90;;;;;;5041951;28;20544;-56
2024/02/12 06:06:28;;;;;;;10.10;4.63;;;6.80;99.90;;;;;;5014647;28;20180;-59
2024/02/12 06:08:54;;;;;;;7.47;4.47;;;6.80;99.90;;;;;;5037513;28;20175;-57
2024/02/12 06:11:20;;;;;;;10.20;4.87;;;6.90;99.90;;;;;;5038275;28;20282;-56
2024/02/12 06:13:46;;;;;;;10.77;4.90;;;6.80;99.90;;;;;;5028299;28;20204;-59
2024/02/12 06:16:12;;;;;;;7.90;4.80;;;6.80;99.90;;;;;;5043691;28;20685;-57
2024/02/12 06:18:39;;;;;;;9.30;5.10;;;6.80;99.90;;;;;;5045423;28;20302;-56
2024/02/12 06:21:05;;;;;;;11.10;5.53;;;6.80;99.90;;;;;;5015768;28;20208;-56
2024/02/12 06:23:30;;;;;;;11.77;5.77;;;6.80;99.90;;;;;;5033120;28;20270;-56
2024/02/12 06:25:56;;;;;;;13.70;6.10;;;6.80;99.90;;;;;;5043264;28;20294;-58
2024/02/12 06:28:22;;;;;;;14.07;6.77;;;6.90;99.90;;;;;;5038598;28;20654;-58
2024/02/12 06:30:49;;;;;;;16.63;7.93;;;6.90;99.90;;;;;;5015315;28;20683;-57
2024/02/12 06:33:14;;;;;;;17.87;8.60;;;6.80;99.90;;;;;;5006447;28;20194;-57
2024/02/12 06:35:40;;;;;;;13.97;7.27;;;6.80;99.90;;;;;;5027677;28;20596;-57
2024/02/12 06:38:05;;;;;;;14.10;7.37;;;6.70;99.90;;;;;;5037297;28;20237;-55
2024/02/12 06:40:31;;;;;;;18.43;8.43;;;6.80;99.90;;;;;;5032356;28;20529;-59
2024/02/12 06:43:02;;;;;;;16.70;9.30;;;6.70;99.90;;;;;;5016387;28;20216;-56
2024/02/12 06:45:28;;;;;;;20.40;10.43;;;6.80;99.90;;;;;;5023423;28;20190;-57
2024/02/12 06:47:54;;;;;;;22.47;10.80;;;6.70;99.90;;;;;;5024943;28;20176;-55
2024/02/12 06:50:19;;;;;;;28.87;12.13;;;6.70;99.90;;;;;;5020303;28;20204;-58
2024/02/12 06:52:45;;;;;;;25.37;10.07;;;6.70;99.90;;;;;;5035992;28;20184;-60
2024/02/12 06:55:11;;;;;;;23.47;11.33;;;6.70;99.90;;;;;;5043077;28;20592;-58
2024/02/12 06:57:37;;;;;;;22.17;10.87;;;6.80;99.90;;;;;;5027224;28;20187;-55
2024/02/12 07:00:06;;;;;;;30.57;12.60;;;6.80;99.90;;;;;;5047937;28;20590;-57
2024/02/12 07:02:35;;;;;;;25.20;11.03;;;6.70;99.90;;;;;;5046094;28;20215;-54
2024/02/12 07:05:04;;;;;;;22.67;10.80;;;6.80;99.90;;;;;;5026505;28;20655;-57
2024/02/12 07:07:30;;;;;;;30.60;11.33;;;6.80;99.90;;;;;;5028151;28;20180;-59
2024/02/12 07:09:57;;;;;;;21.00;10.20;;;6.80;99.90;;;;;;5029919;28;20200;-58
2024/02/12 07:12:22;;;;;;;21.47;9.50;;;6.80;99.90;;;;;;5036877;28;20187;-60
2024/02/12 07:14:48;;;;;;;19.13;10.13;;;6.90;99.90;;;;;;5050219;28;20651;-57
2024/02/12 07:17:14;;;;;;;23.93;12.63;;;6.90;99.90;;;;;;5030838;28;20210;-56
2024/02/12 07:19:47;;;;;;;21.30;11.40;;;6.90;99.90;;;;;;5037699;28;20655;-55
2024/02/12 07:22:12;;;;;;;26.63;12.90;;;6.90;99.90;;;;;;5042143;28;20201;-58
2024/02/12 07:24:40;;;;;;;25.00;11.67;;;7.00;99.90;;;;;;5043936;28;20263;-60
2024/02/12 07:27:07;;;;;;;23.17;11.03;;;6.90;99.90;;;;;;5027169;28;20216;-60
2024/02/12 07:29:32;;;;;;;22.53;10.73;;;7.00;99.90;;;;;;5037691;28;20253;-58
2024/02/12 07:31:58;;;;;;;22.97;11.27;;;7.10;99.90;;;;;;5039945;28;20195;-56
2024/02/12 07:34:23;;;;;;;21.17;11.37;;;7.00;99.90;;;;;;5025231;28;20676;-57
2024/02/12 07:36:49;;;;;;;25.10;11.73;;;7.10;99.90;;;;;;5027558;28;20639;-60
2024/02/12 07:39:17;;;;;;;21.97;10.83;;;7.10;99.90;;;;;;5037075;28;20575;-59
2024/02/12 07:41:43;;;;;;;26.00;11.17;;;7.20;99.90;;;;;;5036150;28;20261;-59
2024/02/12 07:44:10;;;;;;;21.47;11.67;;;7.20;99.90;;;;;;5016225;28;20248;-58
2024/02/12 07:46:38;;;;;;;19.80;11.20;;;7.30;99.90;;;;;;5037830;28;20186;-58
2024/02/12 07:49:05;;;;;;;23.00;12.13;;;7.30;99.90;;;;;;5035469;28;20187;-57
2024/02/12 07:51:31;;;;;;;28.97;12.90;;;7.40;99.90;;;;;;5044156;28;20346;-60
2024/02/12 07:53:57;;;;;;;26.37;12.83;;;7.50;99.90;;;;;;5025165;28;20184;-58
2024/02/12 07:56:23;;;;;;;27.33;12.63;;;7.50;99.90;;;;;;5044518;28;20673;-59
2024/02/12 07:58:49;;;;;;;28.50;13.30;;;7.60;99.90;;;;;;5008867;28;20185;-60
2024/02/12 08:01:15;;;;;;;29.73;14.87;;;7.60;99.90;;;;;;5021646;28;20203;-59
2024/02/12 08:03:42;;;;;;;38.07;16.27;;;7.60;99.90;;;;;;5023498;28;20183;-59
2024/02/12 08:06:09;;;;;;;37.47;16.60;;;7.60;99.90;;;;;;5039080;28;20186;-59
2024/02/12 08:08:35;;;;;;;41.83;17.60;;;7.70;99.90;;;;;;5036795;28;20187;-58
2024/02/12 08:11:00;;;;;;;43.03;17.80;;;7.60;99.90;;;;;;5024687;28;20204;-57
2024/02/12 08:13:26;;;;;;;36.57;16.10;;;7.50;99.90;;;;;;5029766;28;20209;-59
2024/02/12 08:15:51;;;;;;;34.47;15.47;;;7.50;99.90;;;;;;5048097;28;20208;-63
2024/02/12 08:18:17;;;;;;;39.53;17.20;;;7.50;99.90;;;;;;5052096;28;20188;-58
2024/02/12 08:20:43;;;;;;;41.13;16.60;;;7.50;99.90;;;;;;5035252;28;20755;-56
2024/02/12 08:23:09;;;;;;;42.27;20.43;;;7.50;99.90;;;;;;5051437;28;20210;-57
2024/02/12 08:25:38;;;;;;;37.77;18.63;;;7.50;99.90;;;;;;5017067;28;20732;-58
2024/02/12 08:28:04;;;;;;;40.40;17.40;;;7.60;99.90;;;;;;5025960;28;20733;-57
2024/02/12 08:30:30;;;;;;;37.37;16.63;;;7.60;99.90;;;;;;5046106;28;20207;-58
2024/02/12 08:32:55;;;;;;;41.30;16.40;;;7.60;99.90;;;;;;5032624;28;20278;-58
2024/02/12 08:35:21;;;;;;;37.10;16.50;;;7.70;99.90;;;;;;5035696;28;20283;-58
2024/02/12 08:37:47;;;;;;;36.47;16.43;;;7.70;99.90;;;;;;5051532;28;20199;-60
2024/02/12 08:40:16;;;;;;;35.33;16.07;;;7.80;99.90;;;;;;5036748;28;20712;-58
2024/02/12 08:42:44;;;;;;;35.77;14.60;;;7.90;99.90;;;;;;5018950;28;20718;-59
2024/02/12 08:45:11;;;;;;;30.13;14.90;;;7.90;99.90;;;;;;5036963;28;20184;-57
2024/02/12 08:47:38;;;;;;;31.63;14.77;;;8.00;99.90;;;;;;5033268;28;20179;-57
2024/02/12 08:50:05;;;;;;;38.10;16.47;;;8.10;99.90;;;;;;5035092;28;20205;-57
2024/02/12 08:52:33;;;;;;;35.87;15.83;;;8.30;99.90;;;;;;5030307;28;20259;-59
2024/02/12 08:55:10;;;;;;;35.87;15.67;;;8.30;99.90;;;;;;5046843;28;20202;-59
2024/02/12 08:57:37;;;;;;;32.53;15.43;;;8.40;99.90;;;;;;5018229;28;20187;-58
2024/02/12 09:00:06;;;;;;;28.30;13.43;;;8.40;99.90;;;;;;5039474;28;20346;-59
2024/02/12 09:02:32;;;;;;;35.13;14.87;;;8.50;99.90;;;;;;5037733;28;20215;-59
2024/02/12 09:04:57;;;;;;;28.63;14.07;;;8.40;99.90;;;;;;5050075;28;20193;-58
2024/02/12 09:07:23;;;;;;;27.37;14.00;;;8.50;99.90;;;;;;5018695;28;20227;-59
2024/02/12 09:09:49;;;;;;;26.37;13.87;;;8.40;99.90;;;;;;5027531;28;20581;-60
2024/02/12 09:12:15;;;;;;;29.87;14.23;;;8.40;99.90;;;;;;5041980;28;20262;-57
2024/02/12 09:14:40;;;;;;;32.70;15.20;;;8.40;99.90;;;;;;5035275;28;20202;-57
2024/02/12 09:17:06;;;;;;;27.17;13.83;;;8.30;99.90;;;;;;5013432;28;20282;-57
2024/02/12 09:19:32;;;;;;;32.97;15.80;;;8.30;99.90;;;;;;5038024;28;20184;-56
2024/02/12 09:21:58;;;;;;;31.93;16.33;;;8.40;99.90;;;;;;5047918;28;20292;-56
2024/02/12 09:24:23;;;;;;;38.43;15.73;;;8.40;99.90;;;;;;5023769;28;20606;-57
2024/02/12 09:26:49;;;;;;;30.53;15.70;;;8.50;99.90;;;;;;5026949;28;20198;-60
2024/02/12 09:29:16;;;;;;;33.83;15.47;;;8.50;99.90;;;;;;5044407;28;20247;-57
2024/02/12 09:31:41;;;;;;;38.27;16.80;;;8.60;99.90;;;;;;5039886;28;20206;-60
2024/02/12 09:34:07;;;;;;;33.43;14.30;;;8.60;99.90;;;;;;5043585;28;20227;-59
2024/02/12 09:36:33;;;;;;;33.03;15.23;;;8.70;99.90;;;;;;5028041;28;20287;-59
2024/02/12 09:39:04;;;;;;;29.10;14.90;;;8.80;99.90;;;;;;5016110;28;20541;-60
2024/02/12 09:41:33;;;;;;;30.97;14.67;;;8.80;99.90;;;;;;5044687;28;20215;-58
2024/02/12 09:44:01;;;;;;;30.80;13.73;;;8.80;99.90;;;;;;5020628;28;20211;-58
2024/02/12 09:46:29;;;;;;;24.93;12.67;;;9.00;99.90;;;;;;5011298;28;20532;-59
2024/02/12 09:48:57;;;;;;;25.27;12.20;;;9.00;99.90;;;;;;5029082;28;20611;-59
2024/02/12 09:51:24;;;;;;;23.73;11.30;;;9.00;99.90;;;;;;5028846;28;20265;-59
2024/02/12 09:53:55;;;;;;;22.97;11.27;;;9.10;99.90;;;;;;5045855;28;20183;-60
2024/02/12 09:56:22;;;;;;;26.60;10.63;;;9.00;99.90;;;;;;5033417;28;20183;-60
2024/02/12 09:58:47;;;;;;;21.87;9.40;;;9.00;99.90;;;;;;5048548;28;20244;-59
2024/02/12 10:01:13;;;;;;;25.83;11.10;;;9.00;99.90;;;;;;5016881;28;20467;-59
2024/02/12 10:03:39;;;;;;;23.10;9.97;;;9.00;99.90;;;;;;5022109;28;20254;-58
2024/02/12 10:06:05;;;;;;;21.57;10.40;;;8.90;99.90;;;;;;5021887;28;20651;-60
2024/02/12 10:08:31;;;;;;;26.03;10.53;;;8.70;99.90;;;;;;5022628;28;20226;-60
2024/02/12 10:10:56;;;;;;;24.47;10.70;;;8.70;99.90;;;;;;5023041;28;20235;-59
2024/02/12 10:13:23;;;;;;;20.87;9.93;;;8.60;99.90;;;;;;5024256;28;20678;-60
2024/02/12 10:15:50;;;;;;;22.23;9.77;;;8.60;99.90;;;;;;5023354;28;20271;-59
2024/02/12 10:18:16;;;;;;;28.13;9.50;;;8.60;99.90;;;;;;5022166;28;20199;-60
2024/02/12 10:20:43;;;;;;;27.37;10.10;;;8.40;99.90;;;;;;5024350;28;20293;-60
2024/02/12 10:23:09;;;;;;;26.10;10.50;;;8.30;99.90;;;;;;5033227;28;20302;-59
2024/02/12 10:25:50;;;;;;;23.50;11.23;;;8.20;99.90;;;;;;5041821;28;20454;-59
2024/02/12 10:28:22;;;;;;;24.30;11.40;;;8.30;99.90;;;;;;5011933;28;20176;-59
2024/02/12 10:30:48;;;;;;;27.90;11.87;;;8.30;99.90;;;;;;5029649;28;20721;-56
2024/02/12 10:33:15;;;;;;;24.73;12.63;;;8.30;99.90;;;;;;5012179;28;20304;-60
2024/02/12 10:35:48;;;;;;;25.53;11.57;;;8.30;99.90;;;;;;5037211;28;20183;-60
2024/02/12 10:38:15;;;;;;;23.93;12.30;;;8.30;99.90;;;;;;5023125;28;20191;-59
2024/02/12 10:40:56;;;;;;;24.30;12.53;;;8.30;99.90;;;;;;5033912;28;20507;-59
2024/02/12 10:43:24;;;;;;;23.43;11.73;;;8.40;99.90;;;;;;5035500;28;20235;-59
2024/02/12 10:45:53;;;;;;;22.87;11.33;;;8.40;99.90;;;;;;5020715;28;20188;-57
2024/02/12 10:48:20;;;;;;;35.43;12.57;;;8.40;99.90;;;;;;5035506;28;20178;-58
2024/02/12 10:50:47;;;;;;;26.67;12.20;;;8.40;99.90;;;;;;5036489;28;20201;-59
2024/02/12 10:53:16;;;;;;;24.60;11.60;;;8.40;99.90;;;;;;5032970;28;20183;-59
2024/02/12 10:55:43;;;;;;;23.83;10.53;;;8.50;99.90;;;;;;5050944;28;20189;-59
2024/02/12 10:58:10;;;;;;;35.00;12.70;;;8.50;99.90;;;;;;5028811;28;20184;-59
2024/02/12 11:00:39;;;;;;;25.77;12.57;;;8.50;99.90;;;;;;5032090;28;20225;-59
2024/02/12 11:03:05;;;;;;;26.33;10.97;;;8.50;99.90;;;;;;5038485;28;20199;-59
2024/02/12 11:05:38;;;;;;;24.30;12.10;;;8.60;99.90;;;;;;5027456;28;20665;-60
2024/02/12 11:08:10;;;;;;;26.27;12.23;;;8.60;99.90;;;;;;5027157;28;20181;-60
2024/02/12 11:10:35;;;;;;;23.73;11.50;;;8.80;99.90;;;;;;5033568;28;20212;-59
2024/02/12 11:13:04;;;;;;;22.87;10.30;;;9.10;99.90;;;;;;5032748;28;20290;-59
2024/02/12 11:15:29;;;;;;;23.63;10.63;;;9.30;99.90;;;;;;5042799;28;20217;-60
2024/02/12 11:17:55;;;;;;;19.93;9.27;;;9.40;99.90;;;;;;5026097;28;20215;-59
2024/02/12 11:20:22;;;;;;;17.87;9.03;;;9.40;99.90;;;;;;5047032;28;20211;-59
2024/02/12 11:22:48;;;;;;;17.40;7.90;;;9.40;99.90;;;;;;5015933;28;20197;-60
2024/02/12 11:25:23;;;;;;;18.10;8.20;;;9.50;99.90;;;;;;5039314;28;20558;-59
2024/02/12 11:27:50;;;;;;;14.70;7.37;;;9.60;99.90;;;;;;5038889;28;20187;-60
2024/02/12 11:30:16;;;;;;;19.77;8.33;;;9.60;99.90;;;;;;5042718;28;20730;-59
2024/02/12 11:32:45;;;;;;;19.07;7.17;;;9.50;99.90;;;;;;5035873;28;20194;-59
2024/02/12 11:35:12;;;;;;;15.47;6.63;;;9.40;99.90;;;;;;5033565;28;20184;-56
2024/02/12 11:37:56;;;;;;;13.27;7.37;;;9.40;99.90;;;;;;5027730;28;20901;-59
2024/02/12 11:40:21;;;;;;;19.83;6.80;;;9.60;99.90;;;;;;5023183;28;20325;-59
2024/02/12 11:42:51;;;;;;;14.30;7.00;;;9.80;99.90;;;;;;5022763;28;20299;-59
2024/02/12 11:45:22;;;;;;;18.10;6.97;;;9.90;99.90;;;;;;5019397;28;20187;-59
2024/02/12 11:47:49;;;;;;;15.70;7.17;;;10.00;99.90;;;;;;5026121;28;20632;-57
2024/02/12 11:50:24;;;;;;;14.73;6.30;;;10.10;99.90;;;;;;5027185;28;20201;-60
2024/02/12 11:52:53;;;;;;;13.90;6.40;;;10.10;99.90;;;;;;5035124;28;20190;-60
2024/02/12 11:55:19;;;;;;;15.93;6.73;;;10.10;99.90;;;;;;5031138;28;20660;-60
2024/02/12 11:57:48;;;;;;;11.37;5.50;;;10.20;99.90;;;;;;5046077;28;20194;-60
2024/02/12 12:00:18;;;;;;;11.27;5.63;;;10.20;99.90;;;;;;5025786;28;20288;-60
2024/02/12 12:02:51;;;;;;;16.53;5.80;;;10.30;99.90;;;;;;5034439;28;20196;-60
2024/02/12 12:05:24;;;;;;;8.87;4.70;;;10.40;99.90;;;;;;5033551;28;20171;-59
2024/02/12 12:07:51;;;;;;;14.97;6.13;;;10.40;99.90;;;;;;5041508;28;20246;-59
2024/02/12 12:10:25;;;;;;;11.30;4.80;;;10.30;99.90;;;;;;5025513;28;20220;-59
2024/02/12 12:12:51;;;;;;;13.43;5.40;;;10.20;99.90;;;;;;5033719;28;20187;-60
2024/02/12 12:15:17;;;;;;;11.67;5.10;;;10.10;99.90;;;;;;5033430;28;20193;-57
2024/02/12 12:17:44;;;;;;;12.87;6.07;;;10.00;99.90;;;;;;5000961;28;20672;-57
2024/02/12 12:20:10;;;;;;;13.33;5.63;;;9.80;99.90;;;;;;4997056;28;20214;-58
2024/02/12 12:22:39;;;;;;;11.23;5.83;;;9.70;99.90;;;;;;5032688;28;20234;-59
2024/02/12 12:25:09;;;;;;;15.50;5.90;;;9.60;99.90;;;;;;5023868;28;20180;-57
2024/02/12 12:27:37;;;;;;;16.57;5.17;;;9.30;99.90;;;;;;5037154;28;20354;-56
2024/02/12 12:30:14;;;;;;;13.63;5.43;;;9.10;99.90;;;;;;5043892;28;20593;-58
2024/02/12 12:32:44;;;;;;;16.00;5.20;;;9.10;99.90;;;;;;5030754;28;20190;-54
2024/02/12 12:35:10;;;;;;;14.07;5.50;;;9.30;99.90;;;;;;5020790;28;20265;-54
2024/02/12 12:37:38;;;;;;;10.70;5.47;;;9.50;99.90;;;;;;5021206;28;20780;-53
2024/02/12 12:40:25;;;;;;;11.10;5.60;;;9.80;99.90;;;;;;5037728;28;20205;-56
2024/02/12 12:42:50;;;;;;;11.63;4.67;;;9.90;99.90;;;;;;5024483;28;20227;-57
2024/02/12 12:45:17;;;;;;;8.13;4.43;;;9.80;99.90;;;;;;5037449;28;20180;-54
2024/02/12 12:47:43;;;;;;;9.43;4.30;;;9.70;99.90;;;;;;5027407;28;20175;-58
2024/02/12 12:50:10;;;;;;;11.40;4.40;;;9.70;99.90;;;;;;5040530;28;20203;-57
2024/02/12 12:52:36;;;;;;;12.23;5.33;;;9.60;99.90;;;;;;5048917;28;20179;-53
2024/02/12 12:55:08;;;;;;;12.57;5.23;;;9.50;99.90;;;;;;5030034;28;20183;-53
2024/02/12 12:57:34;;;;;;;9.03;4.60;;;9.60;99.90;;;;;;5020309;28;20184;-57
2024/02/12 13:00:02;;;;;;;10.17;4.00;;;9.80;99.90;;;;;;5030035;28;20553;-54